createdAt,value
2022-10-22T00:00:00.011Z,12.18
2022-10-22T00:02:28.054Z,18.10
2022-10-22T00:04:56.790Z,14.15
2022-10-22T00:07:25.833Z,17.60
2022-10-22T00:09:52.893Z,17.35
2022-10-22T00:12:20.289Z,17.30
2022-10-22T00:14:47.417Z,24.05
2022-10-22T00:17:15.217Z,26.00
2022-10-22T00:19:41.888Z,25.67
2022-10-22T00:22:10.277Z,15.13
2022-10-22T00:24:38.611Z,21.77
2022-10-22T00:27:07.893Z,18.45
2022-10-22T00:29:34.690Z,17.55
2022-10-22T00:32:02.493Z,18.88
2022-10-22T00:34:29.173Z,21.58
2022-10-22T00:36:56.607Z,21.08
2022-10-22T00:39:25.211Z,22.27
2022-10-22T00:41:54.246Z,19.73
2022-10-22T00:47:02.941Z,18.73
2022-10-22T00:49:32.245Z,15.80
2022-10-22T00:51:59.978Z,24.05
2022-10-22T00:54:27.022Z,17.20
2022-10-22T00:56:54.723Z,21.10
2022-10-22T00:59:21.870Z,22.80
2022-10-22T01:01:50.498Z,20.17
2022-10-22T01:04:17.255Z,20.77
2022-10-22T01:06:44.660Z,18.88
2022-10-22T01:09:21.731Z,17.45
2022-10-22T01:12:09.775Z,15.93
2022-10-22T01:14:47.599Z,23.58
2022-10-22T01:17:38.831Z,30.25
2022-10-22T01:20:27.710Z,26.73
2022-10-22T01:23:09.251Z,25.38
2022-10-22T01:25:45.879Z,25.67
2022-10-22T01:28:44.611Z,23.08
2022-10-22T01:31:13.800Z,21.58
2022-10-22T01:33:42.081Z,21.85
2022-10-22T01:36:10.464Z,21.90
2022-10-22T01:38:38.758Z,27.05
2022-10-22T01:41:07.093Z,27.05
2022-10-22T01:43:33.854Z,33.83
2022-10-22T01:46:04.101Z,26.42
2022-10-22T01:48:53.798Z,30.73
2022-10-22T01:51:32.434Z,28.85
2022-10-22T01:54:16.946Z,26.10
2022-10-22T01:57:02.951Z,25.48
2022-10-22T01:59:55.886Z,29.55
2022-10-22T02:02:43.070Z,26.95
2022-10-22T02:05:25.627Z,36.47
2022-10-22T02:08:05.990Z,25.02
2022-10-22T02:10:36.822Z,29.38
2022-10-22T02:13:07.236Z,30.75
2022-10-22T02:15:37.707Z,27.33
2022-10-22T02:18:07.216Z,27.48
2022-10-22T02:20:36.875Z,32.75
2022-10-22T02:23:04.776Z,26.33
2022-10-22T02:25:36.472Z,34.58
2022-10-22T02:28:32.028Z,28.52
2022-10-22T02:31:11.767Z,30.88
2022-10-22T02:33:43.404Z,34.97
2022-10-22T02:36:11.821Z,29.05
2022-10-22T02:38:40.340Z,46.75
2022-10-22T02:41:07.685Z,35.30
2022-10-22T02:43:42.981Z,38.35
2022-10-22T02:46:11.383Z,37.25
2022-10-22T02:48:38.175Z,39.33
2022-10-22T02:51:05.549Z,37.28
2022-10-22T02:53:32.556Z,39.78
2022-10-22T02:56:00.214Z,35.08
2022-10-22T02:58:26.889Z,38.70
2022-10-22T03:00:54.511Z,34.92
2022-10-22T03:03:21.169Z,35.20
2022-10-22T03:05:48.445Z,38.22
2022-10-22T03:08:15.065Z,42.58
2022-10-22T03:10:42.439Z,36.85
2022-10-22T03:13:09.231Z,35.95
2022-10-22T03:15:36.563Z,35.80
2022-10-22T03:18:03.277Z,45.55
2022-10-22T03:20:30.244Z,36.10
2022-10-22T03:22:57.718Z,38.60
2022-10-22T03:25:27.111Z,38.17
2022-10-22T03:27:57.199Z,39.67
2022-10-22T03:30:24.114Z,38.25
2022-10-22T03:32:50.678Z,35.25
2022-10-22T03:35:17.979Z,37.20
2022-10-22T03:37:44.820Z,31.00
2022-10-22T03:40:13.011Z,32.63
2022-10-22T03:42:40.752Z,33.20
2022-10-22T03:45:08.987Z,39.70
2022-10-22T03:47:37.045Z,36.72
2022-10-22T03:50:06.144Z,43.17
2022-10-22T03:52:38.123Z,36.40
2022-10-22T03:55:06.496Z,52.13
2022-10-22T03:57:33.096Z,37.90
2022-10-22T04:00:00.000Z,39.20
2022-10-22T04:02:27.300Z,43.05
2022-10-22T04:04:53.939Z,43.78
2022-10-22T04:07:21.317Z,45.95
2022-10-22T04:09:47.945Z,45.70
2022-10-22T04:12:15.275Z,47.83
2022-10-22T04:14:41.876Z,47.38
2022-10-22T04:17:09.128Z,41.72
2022-10-22T04:19:35.920Z,40.78
2022-10-22T04:22:03.204Z,41.13
2022-10-22T04:24:31.846Z,29.90
2022-10-22T04:26:59.360Z,35.75
2022-10-22T04:29:26.462Z,34.63
2022-10-22T04:31:54.129Z,40.03
2022-10-22T04:34:20.813Z,35.90
2022-10-22T04:36:48.400Z,33.35
2022-10-22T04:39:15.353Z,35.80
2022-10-22T04:41:42.605Z,33.35
2022-10-22T04:44:12.339Z,35.90
2022-10-22T04:46:45.473Z,35.53
2022-10-22T04:49:12.117Z,47.03
2022-10-22T04:51:39.453Z,33.95
2022-10-22T04:54:06.213Z,33.50
2022-10-22T04:56:33.724Z,34.90
2022-10-22T04:59:03.337Z,32.38
2022-10-22T05:01:40.032Z,26.45
2022-10-22T05:04:12.625Z,35.35
2022-10-22T05:06:40.154Z,31.90
2022-10-22T05:09:11.179Z,31.20
2022-10-22T05:11:46.439Z,32.17
2022-10-22T05:14:13.239Z,31.80
2022-10-22T05:16:40.604Z,29.08
2022-10-22T05:19:07.857Z,32.58
2022-10-22T05:21:35.585Z,37.20
2022-10-22T05:24:02.319Z,38.58
2022-10-22T05:26:29.953Z,30.05
2022-10-22T05:28:56.915Z,27.70
2022-10-22T05:31:24.415Z,24.63
2022-10-22T05:33:51.119Z,27.25
2022-10-22T05:36:20.942Z,29.27
2022-10-22T05:38:47.687Z,31.25
2022-10-22T05:41:18.119Z,31.40
2022-10-22T05:43:45.455Z,25.38
2022-10-22T05:46:21.270Z,31.70
2022-10-22T05:48:51.028Z,23.10
2022-10-22T05:51:18.634Z,23.33
2022-10-22T05:53:45.731Z,30.73
2022-10-22T05:56:15.425Z,25.05
2022-10-22T05:58:45.193Z,23.65
2022-10-22T06:01:25.287Z,30.83
2022-10-22T06:03:57.175Z,31.13
2022-10-22T06:06:36.375Z,34.20
2022-10-22T06:09:23.285Z,24.92
2022-10-22T06:11:51.391Z,26.23
2022-10-22T06:14:19.310Z,26.42
2022-10-22T06:16:46.369Z,22.85
2022-10-22T06:19:16.057Z,29.80
2022-10-22T06:21:43.776Z,22.50
2022-10-22T06:24:11.087Z,22.63
2022-10-22T06:26:38.813Z,40.33
2022-10-22T06:29:05.693Z,26.95
2022-10-22T06:31:37.051Z,31.05
2022-10-22T06:34:10.742Z,31.50
2022-10-22T06:36:38.574Z,27.60
2022-10-22T06:39:05.488Z,39.25
2022-10-22T06:41:32.783Z,29.02
2022-10-22T06:43:59.933Z,30.77
2022-10-22T06:46:27.617Z,31.23
2022-10-22T06:48:57.101Z,23.20
2022-10-22T06:51:25.200Z,28.50
2022-10-22T06:53:52.808Z,22.10
2022-10-22T06:56:22.451Z,26.95
2022-10-22T06:58:50.816Z,19.23
2022-10-22T07:01:21.531Z,27.42
2022-10-22T07:03:51.321Z,20.83
2022-10-22T07:06:19.331Z,21.10
2022-10-22T07:08:46.197Z,24.33
2022-10-22T07:11:25.011Z,22.08
2022-10-22T07:13:53.869Z,23.90
2022-10-22T07:16:21.127Z,18.40
2022-10-22T07:18:48.079Z,22.52
2022-10-22T07:21:18.216Z,15.90
2022-10-22T07:23:45.772Z,13.63
2022-10-22T07:26:15.375Z,18.33
2022-10-22T07:28:42.196Z,19.20
2022-10-22T07:31:11.349Z,24.67
2022-10-22T07:33:38.436Z,13.35
2022-10-22T07:36:08.307Z,16.27
2022-10-22T07:38:36.016Z,16.60
2022-10-22T07:41:04.036Z,16.05
2022-10-22T07:43:31.061Z,16.08
2022-10-22T07:45:59.860Z,22.40
2022-10-22T07:48:26.556Z,25.15
2022-10-22T07:50:54.012Z,17.95
2022-10-22T07:53:23.785Z,12.68
2022-10-22T07:55:52.417Z,18.75
2022-10-22T07:58:20.033Z,15.65
2022-10-22T08:00:48.224Z,18.33
2022-10-22T08:03:16.567Z,14.40
2022-10-22T08:05:44.614Z,16.40
2022-10-22T08:08:12.939Z,10.15
2022-10-22T08:10:40.302Z,12.77
2022-10-22T08:13:07.441Z,14.30
2022-10-22T08:15:35.165Z,20.30
2022-10-22T08:18:01.964Z,12.18
2022-10-22T08:20:28.969Z,17.25
2022-10-22T08:22:55.751Z,13.10
2022-10-22T08:25:22.799Z,12.30
2022-10-22T08:27:50.163Z,16.45
2022-10-22T08:30:17.379Z,12.63
2022-10-22T08:32:44.731Z,15.80
2022-10-22T08:35:14.143Z,14.50
2022-10-22T08:37:44.309Z,15.23
2022-10-22T08:40:23.008Z,10.48
2022-10-22T08:43:09.483Z,20.27
2022-10-22T08:46:00.464Z,14.40
2022-10-22T08:48:39.395Z,12.85
2022-10-22T08:51:12.108Z,12.55
2022-10-22T08:53:49.448Z,20.08
2022-10-22T08:56:16.844Z,16.00
2022-10-22T08:58:50.653Z,11.02
2022-10-22T09:01:26.536Z,10.68
2022-10-22T09:04:05.433Z,18.58
2022-10-22T09:06:34.563Z,11.52
2022-10-22T09:09:05.532Z,11.40
2022-10-22T09:11:35.042Z,15.57
2022-10-22T09:14:02.664Z,10.68
2022-10-22T09:16:43.298Z,19.70
2022-10-22T09:19:32.830Z,14.95
2022-10-22T09:22:14.063Z,13.00
2022-10-22T09:24:46.474Z,11.70
2022-10-22T09:27:20.161Z,8.98
2022-10-22T09:29:48.482Z,11.70
2022-10-22T09:32:16.845Z,15.88
2022-10-22T09:34:48.487Z,12.75
2022-10-22T09:37:18.787Z,11.23
2022-10-22T09:39:50.622Z,12.05
2022-10-22T09:42:20.065Z,10.30
2022-10-22T09:44:59.973Z,12.93
2022-10-22T09:47:43.157Z,10.30
2022-10-22T09:50:22.039Z,12.73
2022-10-22T09:53:00.509Z,16.80
2022-10-22T09:55:27.411Z,9.98
2022-10-22T09:57:56.515Z,11.82
2022-10-22T10:00:25.022Z,15.73
2022-10-22T10:02:57.564Z,6.53
2022-10-22T10:05:31.218Z,16.63
2022-10-22T10:07:59.895Z,12.85
2022-10-22T10:10:45.313Z,12.68
2022-10-22T10:13:28.887Z,12.18
2022-10-22T10:18:49.211Z,11.48
2022-10-22T10:24:02.728Z,11.18
2022-10-22T10:26:45.981Z,12.43
2022-10-22T10:29:28.065Z,5.05
2022-10-22T10:32:24.538Z,10.10
2022-10-22T10:35:21.601Z,11.05
2022-10-22T10:38:09.863Z,10.10
2022-10-22T10:40:48.426Z,7.57
2022-10-22T10:43:37.237Z,16.60
2022-10-22T10:46:25.250Z,10.25
2022-10-22T10:49:09.949Z,8.65
2022-10-22T10:52:01.473Z,11.95
2022-10-22T10:54:52.662Z,9.50
2022-10-22T10:57:36.229Z,12.93
2022-10-22T11:02:48.248Z,10.57
2022-10-22T11:05:39.092Z,9.00
2022-10-22T11:08:18.635Z,13.85
2022-10-22T11:10:46.810Z,11.90
2022-10-22T11:13:35.432Z,14.30
2022-10-22T11:16:19.086Z,11.32
2022-10-22T11:18:50.023Z,12.18
2022-10-22T11:21:24.660Z,8.07
2022-10-22T11:24:00.552Z,13.43
2022-10-22T11:26:46.771Z,8.40
2022-10-22T11:29:19.836Z,9.93
2022-10-22T11:31:48.843Z,13.40
2022-10-22T11:34:33.177Z,9.40
2022-10-22T11:37:03.644Z,8.38
2022-10-22T11:39:48.839Z,11.13
2022-10-22T11:42:44.290Z,12.23
2022-10-22T11:45:13.968Z,11.52
2022-10-22T11:48:12.600Z,16.35
2022-10-22T11:50:50.597Z,12.63
2022-10-22T11:53:27.727Z,8.73
2022-10-22T11:56:10.459Z,6.93
2022-10-22T11:58:39.073Z,11.18
2022-10-22T12:01:09.561Z,12.23
2022-10-22T12:03:44.484Z,9.60
2022-10-22T12:06:19.830Z,11.98
2022-10-22T12:08:49.520Z,13.80
2022-10-22T12:11:19.724Z,9.00
2022-10-22T12:14:00.068Z,9.18
2022-10-22T12:16:57.321Z,10.30
2022-10-22T12:19:43.437Z,13.93
2022-10-22T12:22:10.765Z,13.80
2022-10-22T12:24:41.217Z,10.77
2022-10-22T12:27:24.374Z,8.02
2022-10-22T12:29:56.458Z,9.45
2022-10-22T12:32:29.302Z,11.10
2022-10-22T12:34:55.929Z,12.55
2022-10-22T12:37:23.206Z,6.88
2022-10-22T12:39:50.926Z,17.25
2022-10-22T12:42:18.908Z,11.52
2022-10-22T12:44:45.591Z,15.05
2022-10-22T12:47:17.207Z,13.85
2022-10-22T12:49:49.591Z,8.32
2022-10-22T12:52:20.660Z,11.82
2022-10-22T12:54:52.260Z,8.70
2022-10-22T12:57:21.131Z,10.20
2022-10-22T12:59:51.115Z,15.88
2022-10-22T13:02:22.643Z,9.27
2022-10-22T13:05:27.181Z,8.25
2022-10-22T13:08:03.555Z,8.48
2022-10-22T13:10:40.384Z,10.93
2022-10-22T13:13:28.184Z,8.50
2022-10-22T13:15:56.716Z,11.07
2022-10-22T13:18:25.568Z,7.20
2022-10-22T13:20:59.064Z,7.10
2022-10-22T13:23:28.151Z,7.00
2022-10-22T13:26:10.984Z,12.43
2022-10-22T13:28:37.757Z,14.95
2022-10-22T13:31:24.392Z,7.97
2022-10-22T13:33:57.597Z,8.40
2022-10-22T13:36:25.167Z,9.65
2022-10-22T13:38:51.886Z,5.82
2022-10-22T13:41:21.550Z,10.02
2022-10-22T13:43:49.322Z,8.65
2022-10-22T13:46:17.487Z,8.48
2022-10-22T13:48:46.298Z,8.90
2022-10-22T13:51:25.281Z,13.98
2022-10-22T13:53:53.434Z,11.88
2022-10-22T13:56:21.919Z,10.90
2022-10-22T13:58:49.148Z,11.73
2022-10-22T14:01:23.709Z,8.77
2022-10-22T14:03:53.247Z,17.50
2022-10-22T14:06:21.991Z,13.80
2022-10-22T14:08:54.553Z,13.50
2022-10-22T14:11:21.347Z,11.73
2022-10-22T14:13:48.550Z,10.07
2022-10-22T14:16:24.999Z,9.80
2022-10-22T14:18:52.259Z,12.50
2022-10-22T14:21:19.835Z,11.07
2022-10-22T14:23:48.858Z,8.95
2022-10-22T14:26:36.061Z,13.25
2022-10-22T14:29:11.446Z,11.68
2022-10-22T14:31:44.484Z,8.52
2022-10-22T14:34:13.471Z,12.45
2022-10-22T14:36:44.049Z,10.90
2022-10-22T14:39:11.805Z,10.18
2022-10-22T14:41:39.744Z,14.13
2022-10-22T14:44:06.524Z,8.18
2022-10-22T14:46:34.165Z,11.40
2022-10-22T14:49:00.764Z,8.15
2022-10-22T14:51:28.376Z,10.43
2022-10-22T14:53:55.325Z,7.57
2022-10-22T14:56:21.930Z,8.90
2022-10-22T14:58:49.852Z,8.20
2022-10-22T15:01:17.093Z,8.60
2022-10-22T15:03:44.408Z,5.68
2022-10-22T15:06:11.077Z,10.52
2022-10-22T15:08:39.617Z,10.05
2022-10-22T15:11:10.310Z,13.75
2022-10-22T15:13:37.278Z,18.30
2022-10-22T15:16:09.338Z,11.95
2022-10-22T15:18:37.206Z,14.20
2022-10-22T15:21:07.271Z,11.50
2022-10-22T15:23:36.220Z,7.20
2022-10-22T15:26:02.866Z,9.05
2022-10-22T15:28:30.114Z,10.23
2022-10-22T15:30:59.038Z,15.77
2022-10-22T15:33:28.037Z,8.57
2022-10-22T15:35:55.563Z,6.72
2022-10-22T15:38:27.384Z,17.38
2022-10-22T15:41:04.496Z,9.02
2022-10-22T15:43:33.883Z,10.07
2022-10-22T15:46:10.038Z,7.85
2022-10-22T15:48:37.432Z,10.38
2022-10-22T15:51:16.392Z,12.05
2022-10-22T15:53:43.492Z,11.52
2022-10-22T15:56:12.237Z,6.45
2022-10-22T15:58:38.823Z,8.48
2022-10-22T16:01:11.754Z,7.93
2022-10-22T16:03:38.964Z,9.07
2022-10-22T16:06:07.432Z,5.78
2022-10-22T16:08:34.665Z,12.45
2022-10-22T16:11:01.464Z,9.23
2022-10-22T16:13:28.422Z,8.95
2022-10-22T16:15:55.292Z,12.95
2022-10-22T16:18:23.472Z,5.22
2022-10-22T16:20:50.189Z,9.18
2022-10-22T16:23:18.838Z,7.55
2022-10-22T16:25:46.445Z,7.35
2022-10-22T16:28:14.073Z,8.07
2022-10-22T16:30:41.579Z,13.57
2022-10-22T16:33:09.895Z,13.45
2022-10-22T16:35:41.374Z,14.88
2022-10-22T16:38:10.271Z,17.13
2022-10-22T16:40:36.948Z,11.63
2022-10-22T16:43:03.633Z,9.15
2022-10-22T16:45:30.426Z,16.70
2022-10-22T16:47:57.200Z,16.48
2022-10-22T16:50:23.831Z,12.45
2022-10-22T16:52:50.655Z,13.77
2022-10-22T16:55:17.634Z,9.20
2022-10-22T16:57:50.778Z,12.40
2022-10-22T17:00:17.867Z,13.27
2022-10-22T17:02:44.721Z,14.27
2022-10-22T17:05:11.468Z,22.35
2022-10-22T17:07:38.547Z,22.20
2022-10-22T17:10:05.654Z,15.07
2022-10-22T17:12:35.340Z,16.23
2022-10-22T17:15:05.968Z,15.75
2022-10-22T17:17:33.843Z,15.63
2022-10-22T17:20:00.409Z,12.85
2022-10-22T17:22:27.523Z,18.70
2022-10-22T17:25:08.149Z,20.80
2022-10-22T17:27:35.440Z,34.85
2022-10-22T17:30:02.065Z,31.15
2022-10-22T17:32:29.705Z,25.60
2022-10-22T17:34:56.374Z,17.65
2022-10-22T17:37:23.824Z,23.92
2022-10-22T17:39:50.489Z,13.73
2022-10-22T17:42:17.748Z,20.27
2022-10-22T17:44:44.299Z,29.42
2022-10-22T17:47:11.722Z,21.30
2022-10-22T17:49:38.477Z,30.13
2022-10-22T17:52:05.715Z,26.35
2022-10-22T17:54:33.565Z,26.85
2022-10-22T17:57:00.799Z,25.33
2022-10-22T17:59:27.627Z,26.08
2022-10-22T18:01:58.124Z,29.02
2022-10-22T18:04:27.125Z,30.95
2022-10-22T18:06:54.042Z,36.03
2022-10-22T18:09:20.677Z,26.02
2022-10-22T18:11:49.453Z,26.65
2022-10-22T18:14:18.458Z,21.00
2022-10-22T18:16:45.649Z,38.17
2022-10-22T18:19:16.063Z,15.93
2022-10-22T18:21:42.838Z,26.13
2022-10-22T18:24:10.382Z,19.25
2022-10-22T18:26:37.143Z,21.15
2022-10-22T18:29:04.147Z,19.92
2022-10-22T18:31:30.818Z,19.02
2022-10-22T18:33:58.313Z,21.52
2022-10-22T18:36:26.835Z,17.05
2022-10-22T18:38:59.195Z,17.52
2022-10-22T18:41:27.272Z,23.85
2022-10-22T18:43:57.089Z,17.02
2022-10-22T18:46:24.320Z,21.00
2022-10-22T18:48:55.798Z,18.77
2022-10-22T18:51:23.923Z,18.60
2022-10-22T18:54:04.623Z,21.83
2022-10-22T18:56:32.562Z,16.80
2022-10-22T18:58:59.261Z,19.85
2022-10-22T19:01:29.217Z,15.82
2022-10-22T19:03:56.728Z,17.10
2022-10-22T19:06:34.378Z,14.73
2022-10-22T19:09:04.488Z,18.63
2022-10-22T19:11:32.044Z,14.75
2022-10-22T19:13:59.001Z,19.48
2022-10-22T19:16:26.698Z,17.48
2022-10-22T19:18:59.370Z,15.05
2022-10-22T19:21:26.393Z,16.75
2022-10-22T19:23:56.434Z,23.13
2022-10-22T19:26:26.235Z,15.80
2022-10-22T19:28:54.228Z,17.98
2022-10-22T19:31:22.646Z,21.60
2022-10-22T19:33:51.546Z,26.45
2022-10-22T19:36:18.995Z,13.30
2022-10-22T19:38:48.483Z,13.05
2022-10-22T19:41:18.176Z,12.43
2022-10-22T19:43:48.112Z,15.15
2022-10-22T19:46:14.927Z,20.05
2022-10-22T19:48:41.955Z,16.35
2022-10-22T19:51:10.944Z,21.33
2022-10-22T19:53:39.333Z,17.40
2022-10-22T19:56:07.992Z,14.65
2022-10-22T19:58:35.535Z,11.75
2022-10-22T20:01:07.028Z,14.20
2022-10-22T20:03:36.175Z,16.25
2022-10-22T20:06:04.861Z,26.75
2022-10-22T20:08:32.125Z,16.70
2022-10-22T20:10:58.916Z,27.85
2022-10-22T20:13:26.246Z,18.77
2022-10-22T20:15:53.472Z,20.27
2022-10-22T20:18:22.640Z,18.35
2022-10-22T20:20:49.404Z,18.20
2022-10-22T20:23:16.852Z,18.20
2022-10-22T20:25:45.594Z,16.90
2022-10-22T20:28:15.484Z,20.75
2022-10-22T20:30:46.006Z,16.67
2022-10-22T20:33:15.681Z,20.75
2022-10-22T20:35:42.497Z,19.27
2022-10-22T20:38:14.328Z,19.60
2022-10-22T20:40:41.277Z,22.23
2022-10-22T20:43:10.547Z,19.63
2022-10-22T20:45:38.985Z,28.23
2022-10-22T20:48:06.344Z,15.43
2022-10-22T20:50:33.374Z,22.60
2022-10-22T20:53:00.355Z,18.55
2022-10-22T20:55:27.354Z,17.42
2022-10-22T20:57:54.961Z,13.65
2022-10-22T21:00:21.718Z,24.58
2022-10-22T21:02:48.429Z,22.38
2022-10-22T21:05:15.028Z,21.60
2022-10-22T21:07:42.042Z,17.92
2022-10-22T21:10:09.743Z,18.58
2022-10-22T21:12:41.559Z,21.38
2022-10-22T21:15:11.772Z,24.77
2022-10-22T21:17:40.516Z,24.05
2022-10-22T21:20:07.524Z,20.90
2022-10-22T21:22:34.567Z,16.08
2022-10-22T21:25:01.189Z,15.38
2022-10-22T21:27:28.446Z,15.30
2022-10-22T21:29:55.036Z,15.55
2022-10-22T21:32:22.512Z,22.15
2022-10-22T21:34:49.231Z,23.02
2022-10-22T21:37:16.515Z,14.77
2022-10-22T21:39:43.209Z,14.02
2022-10-22T21:42:10.640Z,15.82
2022-10-22T21:44:37.216Z,16.50
2022-10-22T21:47:04.720Z,11.52
2022-10-22T21:49:31.628Z,18.60
2022-10-22T21:52:00.361Z,16.90
2022-10-22T21:54:27.081Z,17.77
2022-10-22T21:56:54.413Z,19.35
2022-10-22T21:59:20.988Z,20.73
2022-10-22T22:01:47.964Z,20.98
2022-10-22T22:04:14.718Z,25.80
2022-10-22T22:06:41.685Z,18.17
2022-10-22T22:09:08.309Z,21.55
2022-10-22T22:11:35.650Z,23.40
2022-10-22T22:14:02.451Z,18.13
2022-10-22T22:16:32.720Z,17.63
2022-10-22T22:21:39.663Z,17.20
2022-10-22T22:24:06.938Z,23.70
2022-10-22T22:26:34.512Z,23.25
2022-10-22T22:29:01.411Z,23.80
2022-10-22T22:31:33.858Z,22.83
2022-10-22T22:34:10.201Z,22.27
2022-10-22T22:36:40.202Z,16.48
2022-10-22T22:39:08.922Z,28.52
2022-10-22T22:41:36.290Z,20.52
2022-10-22T22:44:02.981Z,23.27
2022-10-22T22:46:30.250Z,21.13
2022-10-22T22:48:56.894Z,24.50
2022-10-22T22:51:24.431Z,28.40
2022-10-22T22:53:51.431Z,29.70
2022-10-22T22:56:21.376Z,22.73
2022-10-22T22:58:48.779Z,18.35
2022-10-22T23:01:17.275Z,31.13
2022-10-22T23:03:46.257Z,23.50
2022-10-22T23:06:13.906Z,22.20
2022-10-22T23:08:41.031Z,19.20
2022-10-22T23:11:14.201Z,23.58
2022-10-22T23:13:42.284Z,14.93
2022-10-22T23:16:15.189Z,21.42
2022-10-22T23:18:42.325Z,21.52
2022-10-22T23:21:15.249Z,21.85
2022-10-22T23:23:47.066Z,22.42
2022-10-22T23:26:17.679Z,20.17
2022-10-22T23:28:44.477Z,26.15
2022-10-22T23:31:13.642Z,17.05
2022-10-22T23:33:40.838Z,22.50
2022-10-22T23:36:08.241Z,23.77
2022-10-22T23:38:36.634Z,26.10
2022-10-22T23:41:05.493Z,19.20
2022-10-22T23:43:35.795Z,20.42
2022-10-22T23:46:04.832Z,18.23
2022-10-22T23:48:31.644Z,21.88
2022-10-22T23:51:04.742Z,29.48
2022-10-22T23:53:31.391Z,27.25
2022-10-22T23:56:02.985Z,25.15
2022-10-22T23:58:29.578Z,22.75
